Time;durP1;ratioP1;P1;durP2;ratioP2;P2;SDS_P1;SDS_P2;PMS_P1;PMS_P2;Temp;Humidity;BMP_temperature;BMP_pressure;BME280_temperature;BME280_humidity;BME280_pressure;Samples;Min_cycle;Max_cycle;Signal;HPM_P1;HPM_P2
2023/04/14 00:00:36;;;;;;;;;0.75;0.75;;;;;10.93;54.23;100528.28;5053976;27;45885;-70
2023/04/14 00:03:01;;;;;;;;;2.00;2.00;;;;;10.98;54.05;100541.38;5053067;28;45970;-71
2023/04/14 00:05:28;;;;;;;;;1.50;1.50;;;;;11.00;54.56;100534.38;5072289;28;45397;-72
2023/04/14 00:07:54;;;;;;;;;2.00;2.00;;;;;10.97;54.55;100524.78;5110669;27;45756;-71
2023/04/14 00:10:20;;;;;;;;;5.50;3.00;;;;;11.02;54.01;100541.34;5074312;27;45266;-71
2023/04/14 00:12:45;;;;;;;;;3.00;3.00;;;;;10.94;54.93;100527.41;5066521;28;45492;-70
2023/04/14 00:15:11;;;;;;;;;3.25;2.00;;;;;10.89;54.65;100516.06;5062906;28;45922;-69
2023/04/14 00:17:37;;;;;;;;;2.00;2.00;;;;;10.94;54.70;100522.16;5063662;28;45536;-69
2023/04/14 00:20:03;;;;;;;;;2.00;2.00;;;;;11.02;53.96;100524.75;5079152;27;45544;-69
2023/04/14 00:22:29;;;;;;;;;3.00;2.00;;;;;11.04;54.33;100517.78;5064171;27;45696;-70
2023/04/14 00:24:55;;;;;;;;;2.00;2.00;;;;;11.01;54.54;100520.41;5061225;27;45962;-70
2023/04/14 00:27:20;;;;;;;;;3.00;2.00;;;;;11.06;54.55;100523.00;5056505;27;45894;-70
2023/04/14 00:29:46;;;;;;;;;3.75;2.00;;;;;11.02;54.05;100511.66;5091696;27;45635;-69
2023/04/14 00:32:12;;;;;;;;;3.25;2.00;;;;;11.04;54.67;100516.00;5059324;27;45277;-69
2023/04/14 00:34:37;;;;;;;;;2.50;2.25;;;;;11.08;54.56;100523.84;5059947;27;45235;-68
2023/04/14 00:37:03;;;;;;;;;4.00;3.00;;;;;11.09;54.14;100530.84;5059955;27;45406;-69
2023/04/14 00:39:28;;;;;;;;;2.50;2.25;;;;;11.03;54.89;100516.91;5060312;27;45596;-69
2023/04/14 00:41:54;;;;;;;;;2.75;2.50;;;;;11.00;54.34;100508.16;5064642;27;46618;-68
2023/04/14 00:44:21;;;;;;;;;3.75;2.00;;;;;11.00;54.00;100508.16;5054571;27;45865;-70
2023/04/14 00:46:47;;;;;;;;;4.25;2.75;;;;;10.98;54.40;100509.91;5055438;27;45528;-69
2023/04/14 00:49:14;;;;;;;;;3.25;3.00;;;;;10.93;54.36;100499.44;5069543;27;45460;-70
2023/04/14 00:51:40;;;;;;;;;2.50;2.50;;;;;10.92;54.98;100504.72;5063485;27;47007;-69
2023/04/14 00:54:06;;;;;;;;;3.00;2.25;;;;;10.66;55.32;100495.16;5074105;27;45394;-71
2023/04/14 00:56:32;;;;;;;;;3.00;3.00;;;;;10.63;55.30;100507.38;5061981;27;45469;-70
2023/04/14 00:59:02;;;;;;;;;3.25;3.00;;;;;10.54;55.45;100492.59;5059258;27;45572;-70
2023/04/14 01:01:29;;;;;;;;;4.00;2.00;;;;;10.66;55.95;100513.50;5074758;27;47018;-70
2023/04/14 01:03:58;;;;;;;;;4.00;3.00;;;;;10.67;55.69;100509.13;5063112;27;45742;-70
2023/04/14 01:06:25;;;;;;;;;4.00;4.00;;;;;10.68;55.46;100498.66;5065112;28;45567;-69
2023/04/14 01:08:52;;;;;;;;;3.50;3.50;;;;;10.70;55.31;100498.63;5080388;28;45683;-68
2023/04/14 01:11:49;;;;;;;;;5.50;3.50;;;;;10.71;55.75;100500.41;5076768;28;45755;-69
2023/04/14 01:14:40;;;;;;;;;4.25;3.00;;;;;10.71;55.70;100503.03;5091769;27;45310;-69
2023/04/14 01:17:17;;;;;;;;;4.00;4.00;;;;;10.71;55.77;100505.63;5076003;28;45608;-69
2023/04/14 01:20:19;;;;;;;;;3.25;3.25;;;;;10.55;56.01;100482.09;5051717;28;45384;-69
2023/04/14 01:23:05;;;;;;;;;5.00;4.25;;;;;10.63;56.02;100512.63;5007449;28;47075;-69
2023/04/14 01:25:49;;;;;;;;;6.00;4.25;;;;;10.63;56.16;100507.38;5040801;28;45451;-70
2023/04/14 01:28:20;;;;;;;;;3.50;2.25;;;;;10.62;56.32;100514.38;5054401;28;45653;-70
2023/04/14 01:31:12;;;;;;;;;3.25;2.75;;;;;10.56;56.50;100503.94;5041469;28;45622;-71
2023/04/14 01:33:41;;;;;;;;;3.25;3.25;;;;;10.51;56.61;100513.50;5057163;28;45759;-69
2023/04/14 01:36:16;;;;;;;;;4.00;4.00;;;;;10.25;56.69;100497.78;5055392;28;45454;-68
2023/04/14 01:38:43;;;;;;;;;6.00;4.50;;;;;10.30;56.85;100507.44;5041317;28;45395;-70
2023/04/14 01:41:12;;;;;;;;;5.00;3.75;;;;;10.35;57.14;100510.06;5022909;28;45484;-69
2023/04/14 01:43:41;;;;;;;;;6.50;2.00;;;;;10.36;56.98;100507.41;5047892;28;45608;-68
2023/04/14 01:46:12;;;;;;;;;9.75;5.00;;;;;10.40;56.94;100514.41;5053408;28;45557;-68
2023/04/14 01:48:40;;;;;;;;;5.00;3.50;;;;;10.24;56.93;100472.50;5053660;28;45451;-70
2023/04/14 01:51:07;;;;;;;;;5.50;5.50;;;;;10.16;56.99;100473.38;5055310;28;45849;-70
2023/04/14 01:53:37;;;;;;;;;5.25;5.25;;;;;10.30;57.50;100504.81;5055607;28;46160;-70
2023/04/14 01:56:04;;;;;;;;;5.50;5.25;;;;;10.10;57.23;100496.91;5041007;28;45341;-70
2023/04/14 01:58:31;;;;;;;;;8.75;6.50;;;;;10.12;57.92;100515.25;5055717;28;45478;-69
2023/04/14 02:00:58;;;;;;;;;8.75;7.25;;;;;9.90;58.37;100491.69;5054987;28;45617;-70
2023/04/14 02:03:25;;;;;;;;;4.25;3.25;;;;;9.79;58.41;100493.41;5070610;28;46944;-70
2023/04/14 02:05:54;;;;;;;;;6.25;6.25;;;;;9.72;58.85;100500.38;5054529;28;45485;-69
2023/04/14 02:08:22;;;;;;;;;5.50;4.75;;;;;9.68;59.42;100505.59;5055059;28;45474;-70
2023/04/14 02:10:51;;;;;;;;;4.25;4.25;;;;;9.49;59.81;100497.75;5053318;28;45520;-69
2023/04/14 02:13:20;;;;;;;;;8.00;5.00;;;;;9.54;59.95;100518.66;5069622;28;46919;-69
2023/04/14 02:15:49;;;;;;;;;7.25;6.00;;;;;9.36;60.37;100492.47;5054325;28;45531;-68
2023/04/14 02:18:19;;;;;;;;;4.50;4.50;;;;;9.26;60.45;100502.03;5063509;28;45789;-68
2023/04/14 02:20:46;;;;;;;;;5.25;5.25;;;;;9.24;61.31;100520.28;5074932;28;45286;-69
2023/04/14 02:23:13;;;;;;;;;4.75;4.75;;;;;9.11;61.33;100505.41;5075636;27;46110;-70
2023/04/14 02:25:48;;;;;;;;;5.00;5.00;;;;;9.21;61.53;100503.75;5111743;27;45423;-68
2023/04/14 02:28:18;;;;;;;;;7.50;6.25;;;;;9.07;61.33;100490.63;5075819;27;45399;-69
2023/04/14 02:30:49;;;;;;;;;4.50;4.50;;;;;9.08;61.35;100489.75;5093879;27;45419;-70
2023/04/14 02:33:20;;;;;;;;;5.75;4.00;;;;;9.13;61.43;100511.53;5072709;28;47162;-68
2023/04/14 02:36:00;;;;;;;;;4.00;4.00;;;;;9.13;61.02;100486.31;5090632;27;45643;-70
2023/04/14 02:38:41;;;;;;;;;6.25;4.00;;;;;9.28;61.20;100489.84;5073744;28;45548;-69
2023/04/14 02:41:11;;;;;;;;;5.00;4.00;;;;;9.09;60.79;100434.03;5073835;28;45921;-70
2023/04/14 02:43:46;;;;;;;;;5.50;4.00;;;;;9.39;60.81;100482.00;5074768;28;46212;-68
2023/04/14 02:46:16;;;;;;;;;6.00;6.00;;;;;9.47;60.62;100496.84;5093144;27;45534;-68
2023/04/14 02:48:45;;;;;;;;;7.00;5.00;;;;;9.45;60.53;100479.41;5074833;27;45666;-70
2023/04/14 02:51:13;;;;;;;;;7.00;3.00;;;;;9.43;60.23;100473.31;5074638;27;45494;-69
2023/04/14 02:53:39;;;;;;;;;3.50;3.50;;;;;9.58;60.23;100490.78;5074312;27;45681;-70
2023/04/14 02:56:07;;;;;;;;;5.75;5.75;;;;;9.53;60.13;100467.22;5078698;27;45495;-69
2023/04/14 02:58:33;;;;;;;;;6.50;4.00;;;;;9.51;60.20;100458.50;5079029;28;45256;-69
2023/04/14 03:01:00;;;;;;;;;5.50;5.00;;;;;9.29;61.60;100468.03;5094580;27;45493;-69
2023/04/14 03:03:28;;;;;;;;;3.75;3.75;;;;;9.33;60.99;100470.66;5091787;27;45789;-69
2023/04/14 03:05:54;;;;;;;;;4.00;3.25;;;;;9.29;60.94;100452.38;5073799;27;45561;-69
2023/04/14 03:08:20;;;;;;;;;3.25;3.25;;;;;9.44;60.83;100469.81;5073856;27;45843;-71
2023/04/14 03:10:47;;;;;;;;;3.00;3.00;;;;;9.35;61.27;100457.63;5073133;28;45507;-70
2023/04/14 03:13:14;;;;;;;;;4.25;4.00;;;;;9.21;61.16;100441.03;5074145;28;45623;-70
2023/04/14 03:15:41;;;;;;;;;5.50;5.25;;;;;9.43;60.83;100466.34;5072715;28;45492;-69
2023/04/14 03:18:07;;;;;;;;;6.25;4.00;;;;;9.44;60.53;100452.38;5106247;27;45628;-69
2023/04/14 03:20:34;;;;;;;;;4.50;4.00;;;;;9.39;60.26;100438.44;5077492;27;45491;-71
2023/04/14 03:23:05;;;;;;;;;6.75;4.50;;;;;9.37;60.93;100444.53;5073607;27;45801;-69
2023/04/14 03:25:36;;;;;;;;;7.75;5.50;;;;;9.25;61.57;100441.00;5090428;27;45463;-70
2023/04/14 03:28:08;;;;;;;;;5.00;5.00;;;;;9.17;61.84;100449.72;5077939;28;45447;-70
2023/04/14 03:30:36;;;;;;;;;6.75;6.75;;;;;8.96;62.45;100447.91;5062877;28;45440;-71
2023/04/14 03:33:07;;;;;;;;;6.00;5.00;;;;;8.77;63.12;100463.47;5077724;27;45492;-69
2023/04/14 03:35:35;;;;;;;;;7.00;7.00;;;;;8.53;64.35;100452.91;5077374;27;45651;-70
2023/04/14 03:38:05;;;;;;;;;7.25;6.25;;;;;8.43;64.93;100452.84;5073775;28;45467;-69
2023/04/14 03:40:37;;;;;;;;;8.50;7.00;;;;;8.39;64.89;100458.88;5106590;27;45532;-68
2023/04/14 03:43:04;;;;;;;;;8.00;5.25;;;;;8.22;65.38;100447.47;5088751;27;47851;-70
2023/04/14 03:45:31;;;;;;;;;9.25;7.00;;;;;8.25;65.41;100457.91;5073424;28;45436;-69
2023/04/14 03:48:03;;;;;;;;;5.50;5.50;;;;;8.16;65.78;100455.22;5076911;28;45546;-69
2023/04/14 03:50:35;;;;;;;;;7.50;7.25;;;;;8.08;66.06;100463.00;5076162;27;45387;-70
2023/04/14 03:53:01;;;;;;;;;7.00;7.00;;;;;8.06;66.39;100468.19;5091304;27;45529;-69
2023/04/14 03:55:31;;;;;;;;;7.25;5.75;;;;;7.98;66.34;100441.19;5073218;27;45653;-68
2023/04/14 03:58:00;;;;;;;;;8.25;5.00;;;;;8.01;66.78;100454.25;5072248;28;45793;-70
2023/04/14 04:00:26;;;;;;;;;7.50;7.50;;;;;7.92;66.34;100432.44;5073576;28;45508;-70
2023/04/14 04:02:57;;;;;;;;;6.50;5.50;;;;;7.95;66.40;100435.06;5072671;28;45319;-70
2023/04/14 04:05:23;;;;;;;;;10.25;6.25;;;;;8.02;66.57;100448.19;5076258;28;45484;-69
2023/04/14 04:07:52;;;;;;;;;6.75;6.75;;;;;7.96;67.24;100455.97;5079046;27;45841;-71
2023/04/14 04:10:20;;;;;;;;;8.50;7.50;;;;;7.88;67.28;100464.56;5077244;28;45472;-68
2023/04/14 04:12:48;;;;;;;;;6.50;5.25;;;;;7.87;67.35;100448.06;5092244;27;46500;-71
2023/04/14 04:15:14;;;;;;;;;8.50;7.00;;;;;7.74;67.11;100425.38;5076837;28;45359;-71
2023/04/14 04:17:42;;;;;;;;;6.75;6.75;;;;;7.82;67.44;100453.22;5079705;28;45713;-70
2023/04/14 04:20:13;;;;;;;;;5.50;5.50;;;;;7.82;67.48;100448.00;5095359;27;45391;-71
2023/04/14 04:22:44;;;;;;;;;7.50;7.50;;;;;7.74;67.79;100443.63;5075168;27;46534;-71
2023/04/14 04:25:10;;;;;;;;;6.00;5.00;;;;;7.70;67.85;100453.13;5075984;28;45524;-70
2023/04/14 04:27:47;;;;;;;;;5.00;5.00;;;;;7.73;67.47;100449.66;5079002;28;45547;-71
2023/04/14 04:30:16;;;;;;;;;6.75;6.75;;;;;7.71;68.11;100440.97;5078003;27;45895;-69
2023/04/14 04:32:41;;;;;;;;;9.50;7.00;;;;;7.57;68.64;100436.50;5074259;28;47197;-68
2023/04/14 04:35:11;;;;;;;;;9.50;7.25;;;;;7.52;68.85;100433.00;5075832;27;45388;-70
2023/04/14 04:37:37;;;;;;;;;8.75;6.25;;;;;7.49;68.88;100437.28;5074826;27;45873;-70
2023/04/14 04:40:04;;;;;;;;;6.25;6.25;;;;;7.27;69.00;100408.41;5075546;28;45605;-72
2023/04/14 04:42:30;;;;;;;;;7.75;7.50;;;;;7.41;69.37;100435.47;5077822;28;46756;-69
2023/04/14 04:44:55;;;;;;;;;12.50;8.50;;;;;7.35;69.53;100424.13;5076659;27;45590;-70
2023/04/14 04:47:21;;;;;;;;;8.00;8.00;;;;;7.38;69.29;100427.63;5077663;27;45377;-69
2023/04/14 04:49:49;;;;;;;;;8.00;7.50;;;;;7.38;69.32;100427.63;5096429;27;45457;-70
2023/04/14 04:52:14;;;;;;;;;15.25;8.00;;;;;7.25;69.77;100422.28;5092231;27;45510;-71
2023/04/14 04:54:42;;;;;;;;;8.50;8.50;;;;;7.36;69.57;100428.50;5075607;27;45345;-68
2023/04/14 04:57:08;;;;;;;;;9.75;7.00;;;;;7.19;69.48;100394.44;5075008;27;45374;-70
2023/04/14 04:59:33;;;;;;;;;8.75;6.75;;;;;7.36;69.08;100418.94;5074761;28;45500;-70
2023/04/14 05:01:59;;;;;;;;;7.25;7.25;;;;;7.33;69.67;100405.88;5074637;28;47589;-69
2023/04/14 05:04:24;;;;;;;;;9.25;8.25;;;;;7.24;69.22;100395.38;5075320;28;45868;-69
2023/04/14 05:06:50;;;;;;;;;10.75;7.25;;;;;7.23;69.90;100422.25;5091585;27;46083;-70
2023/04/14 05:09:16;;;;;;;;;9.75;9.50;;;;;7.12;69.92;100406.53;5074427;27;45487;-69
2023/04/14 05:11:41;;;;;;;;;8.50;7.75;;;;;6.89;70.44;100368.94;5091831;27;46886;-69
2023/04/14 05:14:07;;;;;;;;;8.75;8.75;;;;;7.04;70.49;100402.09;5075910;27;45283;-69
2023/04/14 05:16:33;;;;;;;;;7.75;7.75;;;;;7.18;69.65;100410.91;5074691;28;45439;-70
2023/04/14 05:18:59;;;;;;;;;9.25;8.25;;;;;7.04;70.11;100374.31;5074505;28;45683;-70
2023/04/14 05:21:24;;;;;;;;;10.50;8.50;;;;;7.22;70.19;100400.56;5075565;27;46498;-69
2023/04/14 05:23:50;;;;;;;;;11.00;8.50;;;;;7.18;70.15;100396.16;5075601;27;45489;-71
2023/04/14 05:26:15;;;;;;;;;10.00;7.75;;;;;7.08;70.37;100373.50;5079073;28;45512;-70
2023/04/14 05:28:41;;;;;;;;;12.00;8.50;;;;;7.20;70.54;100393.59;5070576;28;45600;-69
2023/04/14 05:31:07;;;;;;;;;12.25;8.50;;;;;7.14;70.52;100389.19;5060429;28;46222;-69
2023/04/14 05:33:36;;;;;;;;;9.50;9.50;;;;;7.15;70.46;100396.13;5070778;28;45504;-70
2023/04/14 05:36:02;;;;;;;;;12.50;10.75;;;;;7.11;70.21;100396.09;5078982;27;45326;-70
2023/04/14 05:38:30;;;;;;;;;10.50;10.50;;;;;6.90;71.33;100381.09;5075442;28;45379;-68
2023/04/14 05:40:56;;;;;;;;;13.50;12.75;;;;;6.84;71.97;100394.94;5074853;28;46921;-70
2023/04/14 05:43:21;;;;;;;;;11.50;11.25;;;;;6.81;72.13;100394.91;5079292;27;45411;-70
2023/04/14 05:45:47;;;;;;;;;14.00;12.00;;;;;6.75;71.93;100387.88;5077232;27;45415;-68
2023/04/14 05:48:13;;;;;;;;;11.75;10.00;;;;;6.77;72.31;100387.91;5090726;27;45472;-69
2023/04/14 05:50:39;;;;;;;;;15.75;12.25;;;;;6.77;72.54;100382.69;5070792;27;45845;-69
2023/04/14 05:53:05;;;;;;;;;13.00;12.00;;;;;6.87;71.96;100386.28;5080077;27;45524;-68
2023/04/14 05:55:31;;;;;;;;;11.75;11.75;;;;;6.93;71.63;100384.63;5072265;27;45514;-69
2023/04/14 05:57:58;;;;;;;;;14.75;12.25;;;;;7.03;71.53;100384.72;5057052;27;45486;-68
2023/04/14 06:00:24;;;;;;;;;16.75;15.50;;;;;6.97;71.83;100383.78;5072386;27;45367;-69
2023/04/14 06:02:50;;;;;;;;;17.00;15.50;;;;;6.93;71.65;100368.13;5071737;27;45623;-69
2023/04/14 06:05:16;;;;;;;;;16.25;14.00;;;;;6.86;71.61;100350.66;5074952;27;45541;-69
2023/04/14 06:07:42;;;;;;;;;16.75;15.00;;;;;6.97;71.89;100356.88;5057454;27;45583;-69
2023/04/14 06:10:09;;;;;;;;;15.00;13.25;;;;;7.06;71.21;100361.31;5064894;27;46903;-68
2023/04/14 06:12:36;;;;;;;;;20.75;16.25;;;;;7.13;71.64;100374.41;5059155;27;45459;-69
2023/04/14 06:15:04;;;;;;;;;13.00;13.00;;;;;7.16;71.48;100373.56;5064687;27;45464;-69
2023/04/14 06:17:31;;;;;;;;;14.00;13.50;;;;;7.08;71.53;100365.69;5088187;27;45622;-68
2023/04/14 06:19:57;;;;;;;;;20.75;15.00;;;;;6.84;71.82;100349.81;5054308;27;45434;-68
2023/04/14 06:22:27;;;;;;;;;17.50;13.75;;;;;7.07;72.02;100366.56;5053350;27;45363;-70
2023/04/14 06:24:57;;;;;;;;;14.00;13.00;;;;;7.12;71.81;100358.75;5075710;27;45565;-68
2023/04/14 06:27:25;;;;;;;;;19.25;15.25;;;;;7.21;71.63;100375.38;5065161;27;45469;-69
2023/04/14 06:29:52;;;;;;;;;17.25;16.25;;;;;7.17;71.42;100363.16;5059399;27;45288;-69
2023/04/14 06:32:18;;;;;;;;;19.00;13.75;;;;;7.15;72.09;100364.88;5110475;27;45380;-69
2023/04/14 06:34:45;;;;;;;;;21.25;16.75;;;;;7.23;71.94;100352.78;5077690;27;45354;-70
2023/04/14 06:37:10;;;;;;;;;18.75;16.75;;;;;7.17;71.73;100352.75;5057912;27;45524;-68
2023/04/14 06:39:36;;;;;;;;;17.00;16.00;;;;;7.31;71.31;100362.41;5052466;27;45728;-69
2023/04/14 06:42:01;;;;;;;;;15.00;14.25;;;;;7.23;71.52;100333.69;5058207;27;45547;-69
2023/04/14 06:44:27;;;;;;;;;16.75;13.50;;;;;7.52;71.34;100347.00;5065677;27;45540;-69
2023/04/14 06:46:53;;;;;;;;;17.00;15.75;;;;;7.69;70.36;100341.00;5063783;27;46025;-68
2023/04/14 06:49:20;;;;;;;;;22.00;17.00;;;;;7.79;69.90;100337.63;5051911;27;45823;-69
2023/04/14 06:51:47;;;;;;;;;19.25;18.00;;;;;7.83;70.01;100332.44;5091157;27;45519;-70
2023/04/14 06:54:13;;;;;;;;;16.75;14.00;;;;;7.85;69.92;100322.91;5058620;27;45493;-69
2023/04/14 06:56:40;;;;;;;;;20.50;18.50;;;;;7.92;69.36;100331.63;5077777;27;45352;-68
2023/04/14 06:59:06;;;;;;;;;17.50;17.50;;;;;7.76;69.59;100314.13;5058728;27;45509;-69
2023/04/14 07:01:31;;;;;;;;;19.50;16.25;;;;;7.82;69.47;100324.59;5064423;28;45555;-70
2023/04/14 07:03:57;;;;;;;;;18.75;18.00;;;;;7.87;69.43;100320.28;5067684;27;45350;-69
2023/04/14 07:06:23;;;;;;;;;16.50;16.00;;;;;7.96;69.26;100299.50;5055555;27;45626;-69
2023/04/14 07:08:48;;;;;;;;;15.50;15.25;;;;;8.18;68.63;100320.47;5088086;27;47694;-70
2023/04/14 07:11:14;;;;;;;;;19.50;16.75;;;;;8.25;68.71;100327.47;5065847;27;45571;-69
2023/04/14 07:13:40;;;;;;;;;20.00;15.50;;;;;8.27;68.56;100323.13;5057999;27;45483;-69
2023/04/14 07:16:07;;;;;;;;;14.25;14.00;;;;;8.39;68.20;100320.56;5053735;27;45374;-70
2023/04/14 07:18:33;;;;;;;;;17.50;16.00;;;;;8.45;67.88;100320.63;5054392;27;45319;-70
2023/04/14 07:21:00;;;;;;;;;16.50;14.25;;;;;8.41;67.62;100307.56;5055833;27;45414;-70
2023/04/14 07:23:26;;;;;;;;;19.25;18.00;;;;;8.28;68.11;100311.81;5055827;28;45773;-69
2023/04/14 07:25:56;;;;;;;;;15.75;14.00;;;;;8.33;68.07;100322.28;5060319;27;45454;-69
2023/04/14 07:28:23;;;;;;;;;18.50;17.75;;;;;8.35;67.75;100311.00;5069278;27;46297;-69
2023/04/14 07:30:52;;;;;;;;;21.25;18.50;;;;;8.27;68.48;100315.28;5065724;28;45496;-69
2023/04/14 07:33:18;;;;;;;;;13.25;13.25;;;;;8.33;68.26;100306.59;5077942;27;45432;-71
2023/04/14 07:35:49;;;;;;;;;15.75;15.50;;;;;8.28;67.71;100280.50;5075766;27;45528;-68
2023/04/14 07:38:16;;;;;;;;;15.25;14.75;;;;;8.43;67.51;100304.09;5087301;27;46964;-70
2023/04/14 07:40:41;;;;;;;;;14.25;14.00;;;;;8.37;68.05;100293.59;5073265;27;45598;-68
2023/04/14 07:43:07;;;;;;;;;17.00;15.25;;;;;8.37;67.90;100284.91;5063640;27;45416;-69
2023/04/14 07:45:33;;;;;;;;;14.50;13.00;;;;;8.52;67.85;100285.00;5068273;27;45389;-71
2023/04/14 07:47:59;;;;;;;;;17.75;14.25;;;;;8.66;67.65;100290.22;5072884;27;46593;-69
2023/04/14 07:50:25;;;;;;;;;17.25;14.75;;;;;8.69;67.56;100283.28;5062590;27;45580;-68
2023/04/14 07:52:51;;;;;;;;;14.00;13.00;;;;;8.70;67.67;100284.16;5071444;28;46116;-69
2023/04/14 07:55:17;;;;;;;;;16.25;11.50;;;;;8.78;66.97;100278.94;5060469;27;45420;-69
2023/04/14 07:57:42;;;;;;;;;9.50;9.50;;;;;8.63;66.94;100272.81;5065373;27;46227;-69
2023/04/14 08:00:09;;;;;;;;;10.50;9.00;;;;;8.71;67.09;100280.69;5078888;27;45435;-69
2023/04/14 08:02:36;;;;;;;;;12.00;12.00;;;;;8.70;67.30;100269.34;5058577;27;45602;-69
2023/04/14 08:05:03;;;;;;;;;12.75;11.75;;;;;8.75;67.47;100271.13;5056690;27;45487;-70
2023/04/14 08:07:29;;;;;;;;;11.50;10.00;;;;;8.78;67.18;100261.56;5068321;27;45610;-69
2023/04/14 08:09:55;;;;;;;;;18.00;14.00;;;;;8.87;66.94;100253.75;5071283;28;46453;-69
2023/04/14 08:12:20;;;;;;;;;12.75;10.00;;;;;8.71;66.64;100246.75;5066359;28;45385;-69
2023/04/14 08:15:00;;;;;;;;;18.50;11.75;;;;;8.75;67.14;100258.06;5064278;27;45584;-75
2023/04/14 08:17:26;;;;;;;;;11.50;10.00;;;;;8.68;67.06;100265.91;5054503;28;45571;-69
2023/04/14 08:19:51;;;;;;;;;9.75;8.50;;;;;8.68;67.30;100262.38;5057265;27;45506;-70
2023/04/14 08:22:17;;;;;;;;;10.00;9.75;;;;;8.58;67.73;100260.63;5057437;28;45500;-68
2023/04/14 08:24:42;;;;;;;;;14.00;10.75;;;;;8.64;67.76;100269.34;5053418;27;45702;-69
2023/04/14 08:27:08;;;;;;;;;11.50;9.50;;;;;8.61;67.64;100263.25;5055132;27;45553;-69
2023/04/14 08:29:34;;;;;;;;;12.25;12.25;;;;;8.58;68.26;100258.03;5057288;28;46299;-68
2023/04/14 08:32:00;;;;;;;;;13.25;11.50;;;;;8.58;68.64;100248.44;5069331;28;45914;-69
2023/04/14 08:34:25;;;;;;;;;9.25;9.25;;;;;8.68;68.20;100251.94;5072133;28;45429;-70
2023/04/14 08:36:51;;;;;;;;;11.50;10.50;;;;;8.67;68.23;100250.22;5075020;28;46071;-71
2023/04/14 08:39:16;;;;;;;;;13.75;13.75;;;;;8.59;69.01;100246.69;5089701;27;46406;-70
2023/04/14 08:41:42;;;;;;;;;10.75;9.00;;;;;8.64;68.63;100252.84;5072497;27;45255;-69
2023/04/14 08:44:08;;;;;;;;;11.00;9.50;;;;;8.74;68.83;100251.97;5052615;27;45245;-69
2023/04/14 08:46:34;;;;;;;;;8.25;8.25;;;;;8.78;68.75;100238.06;5050894;27;47355;-71
2023/04/14 08:49:05;;;;;;;;;14.50;11.50;;;;;8.80;68.47;100236.28;5056661;27;45326;-70
2023/04/14 08:51:35;;;;;;;;;10.25;9.50;;;;;8.94;68.00;100235.44;5055204;27;45426;-71
2023/04/14 08:54:04;;;;;;;;;8.25;8.25;;;;;8.90;67.95;100213.69;5055759;27;45716;-70
2023/04/14 08:56:33;;;;;;;;;8.50;7.25;;;;;9.02;67.17;100231.13;5056209;27;45457;-68
2023/04/14 08:59:00;;;;;;;;;9.75;9.00;;;;;9.09;67.70;100238.09;5056168;27;45656;-69
2023/04/14 09:01:30;;;;;;;;;9.75;9.75;;;;;9.12;66.77;100219.78;5062009;27;45392;-69
2023/04/14 09:03:56;;;;;;;;;9.00;9.00;;;;;9.24;67.34;100224.13;5059379;27;45480;-70
2023/04/14 09:06:22;;;;;;;;;8.75;8.75;;;;;9.29;66.69;100238.06;5056995;27;47470;-72
2023/04/14 09:08:48;;;;;;;;;9.25;8.75;;;;;9.33;66.39;100226.75;5055716;27;45420;-71
2023/04/14 09:11:15;;;;;;;;;8.75;7.25;;;;;9.28;65.88;100220.66;5059833;27;45275;-69
2023/04/14 09:13:43;;;;;;;;;7.50;7.00;;;;;9.41;65.92;100224.13;5057403;27;45481;-69
2023/04/14 09:16:11;;;;;;;;;9.00;7.50;;;;;9.50;65.53;100224.97;5061921;27;45647;-67
2023/04/14 09:18:37;;;;;;;;;11.25;8.25;;;;;9.51;64.93;100202.31;5061240;27;46167;-69
2023/04/14 09:21:03;;;;;;;;;5.50;5.50;;;;;9.51;64.92;100203.16;5064093;27;45413;-69
2023/04/14 09:23:29;;;;;;;;;5.25;5.25;;;;;9.57;65.22;100219.75;5068147;27;45687;-70
2023/04/14 09:25:55;;;;;;;;;8.25;5.25;;;;;9.50;65.10;100201.44;5069389;27;46087;-71
2023/04/14 09:28:21;;;;;;;;;4.25;4.00;;;;;9.31;65.35;100208.44;5072201;27;45485;-70
2023/04/14 09:30:46;;;;;;;;;7.25;5.75;;;;;9.20;65.81;100177.97;5071023;28;45366;-70
2023/04/14 09:33:20;;;;;;;;;5.75;4.25;;;;;9.12;65.94;100167.53;5074143;27;45414;-69
2023/04/14 09:35:50;;;;;;;;;4.75;4.75;;;;;9.29;65.90;100191.88;5073296;28;46867;-71
2023/04/14 09:38:36;;;;;;;;;4.50;4.00;;;;;9.26;66.16;100196.25;5074647;27;45516;-70
2023/04/14 09:41:04;;;;;;;;;4.75;4.75;;;;;9.30;66.27;100201.50;5072901;28;45707;-70
2023/04/14 09:43:31;;;;;;;;;2.50;2.00;;;;;9.31;66.02;100190.16;5075243;28;45533;-70
2023/04/14 09:46:03;;;;;;;;;5.00;4.50;;;;;9.40;65.85;100178.81;5079722;27;45448;-69
2023/04/14 09:48:29;;;;;;;;;5.25;5.00;;;;;9.51;65.58;100184.00;5070440;28;45467;-71
2023/04/14 09:51:11;;;;;;;;;3.00;3.00;;;;;9.45;65.33;100156.16;5070114;27;45593;-70
2023/04/14 09:53:39;;;;;;;;;4.00;2.50;;;;;9.54;65.49;100157.88;5094663;27;45525;-69
2023/04/14 09:56:10;;;;;;;;;6.00;4.00;;;;;9.72;65.30;100155.16;5074583;28;46667;-71
2023/04/14 09:58:43;;;;;;;;;3.25;2.75;;;;;9.77;65.44;100158.66;5077353;27;45477;-71
2023/04/14 10:01:14;;;;;;;;;2.75;2.75;;;;;9.82;65.12;100152.53;5071115;28;45819;-70
2023/04/14 10:03:40;;;;;;;;;4.00;3.50;;;;;9.90;64.75;100158.59;5087379;27;45461;-70
2023/04/14 10:06:15;;;;;;;;;3.00;3.00;;;;;10.02;64.64;100155.94;5068872;27;46710;-69
2023/04/14 10:08:43;;;;;;;;;2.25;2.00;;;;;10.10;63.97;100151.50;5067463;28;45532;-70
2023/04/14 10:11:19;;;;;;;;;6.00;2.00;;;;;10.01;64.02;100138.47;5065832;27;45435;-70
2023/04/14 10:14:05;;;;;;;;;2.00;2.00;;;;;10.16;63.96;100142.78;5060695;28;45501;-70
2023/04/14 10:16:31;;;;;;;;;2.75;2.75;;;;;10.22;63.73;100154.94;5067570;27;45565;-70
2023/04/14 10:18:57;;;;;;;;;3.00;3.00;;;;;10.22;63.39;100155.81;5058140;28;45580;-70
2023/04/14 10:21:24;;;;;;;;;3.50;2.50;;;;;10.16;63.89;100138.41;5034639;28;45486;-71
2023/04/14 10:23:50;;;;;;;;;3.00;2.00;;;;;10.20;63.88;100136.63;5054637;28;45450;-70
2023/04/14 10:26:19;;;;;;;;;6.50;2.75;;;;;10.17;63.75;100131.41;5056701;28;45394;-69
2023/04/14 10:28:53;;;;;;;;;4.00;2.00;;;;;10.17;63.84;100136.66;5039990;28;45455;-69
2023/04/14 10:31:25;;;;;;;;;3.00;3.00;;;;;10.22;63.64;100126.16;5051645;28;45936;-69
2023/04/14 10:33:51;;;;;;;;;3.50;2.25;;;;;10.26;63.19;100120.03;5035399;28;45447;-69
2023/04/14 10:36:27;;;;;;;;;3.00;2.25;;;;;10.31;62.88;100116.53;5054400;28;46007;-70
2023/04/14 10:39:02;;;;;;;;;4.00;3.00;;;;;10.30;62.38;100112.19;5054960;28;45432;-70
2023/04/14 10:41:49;;;;;;;;;1.00;1.00;;;;;10.07;62.47;100083.50;5057116;28;45503;-69
2023/04/14 10:44:34;;;;;;;;;3.50;3.25;;;;;10.21;62.89;100111.34;5052547;28;45483;-70
2023/04/14 10:47:03;;;;;;;;;4.75;2.00;;;;;10.12;62.84;100088.72;5031947;28;47177;-69
2023/04/14 10:49:29;;;;;;;;;3.00;3.00;;;;;10.15;62.92;100097.41;5034991;28;45502;-70
2023/04/14 10:52:03;;;;;;;;;2.25;2.00;;;;;10.16;63.11;100091.31;5036181;28;45817;-70
2023/04/14 10:54:53;;;;;;;;;3.75;2.00;;;;;10.24;62.95;100109.56;5047449;28;45862;-71
2023/04/14 10:57:23;;;;;;;;;3.00;3.00;;;;;10.29;62.81;100076.41;5059629;28;46539;-72
2023/04/14 10:59:55;;;;;;;;;2.00;1.50;;;;;10.46;62.23;100081.50;5051047;28;45391;-73
2023/04/14 11:02:29;;;;;;;;;4.00;3.00;;;;;10.67;62.24;100085.69;5020992;28;45328;-71
2023/04/14 11:05:05;;;;;;;;;3.50;2.00;;;;;10.74;61.47;100078.66;5043210;28;45478;-71
2023/04/14 11:07:45;;;;;;;;;4.25;3.00;;;;;10.68;61.38;100065.59;5022916;28;45633;-70
2023/04/14 11:10:20;;;;;;;;;2.00;1.25;;;;;10.74;61.72;100076.03;5035610;28;45334;-69
2023/04/14 11:12:48;;;;;;;;;4.00;2.75;;;;;10.75;61.66;100070.78;5036882;28;45455;-72
2023/04/14 11:15:15;;;;;;;;;4.25;4.25;;;;;10.81;62.21;100073.34;5032479;28;45756;-72
2023/04/14 11:17:42;;;;;;;;;4.50;3.75;;;;;10.76;62.17;100064.66;5046586;27;45686;-70
2023/04/14 11:20:18;;;;;;;;;4.75;3.00;;;;;10.69;62.26;100062.97;5061192;27;45893;-70
2023/04/14 11:22:52;;;;;;;;;3.50;2.00;;;;;10.68;63.00;100040.31;5073088;27;45516;-70
2023/04/14 11:25:20;;;;;;;;;3.25;3.00;;;;;10.77;63.08;100055.03;5067246;28;45349;-71
2023/04/14 11:27:50;;;;;;;;;3.50;3.00;;;;;10.75;63.40;100041.97;5069681;27;46036;-68
2023/04/14 11:30:21;;;;;;;;;3.75;2.50;;;;;10.77;64.24;100036.72;5070509;28;45266;-71
2023/04/14 11:32:47;;;;;;;;;5.50;3.00;;;;;10.70;63.88;100035.03;5075853;28;45401;-70